Portada
METAR-TAF:

METAR-TAF

Aeroports :

Pyongyang, Corea del Nord

latitud: 39-02N, longitud: 125-47E, altitud: 36 m

METAR: manca

Hora: 05:47 (20:47 UTC)

Pronòstic

L'informe es va fer fa 16 hores i 7 minuts, a les 04:40 UTC
Pronòstic vàlid del 24 a les 06 UTC al 25 a les 06 UTC
Vent 8 kt del Sud-Est
Visibilitat 10 km o més
Cel ennuvolat a una alçada de 2000 ft
Temporalment
l' 24 a les 20 UTC al 25 a les 06 UTC
Cel cobert a una alçada de 3000 ft

TAF: ZKPY 240440Z 2406/2506 14004MPS 9999 BKN020 TX26/2406Z TN18/2421Z TEMPO 2420/2506 OVC030

Observacions i pronòstics meteorològics de més de 4000 aeroports (METAR i TAF).

Les estacions disponibles són els punts grocs i vermells al mapa.

Posi el ratolí al punt desitjat per veure el nom de l'estació.

Feu clic per veure les observacions i els pronòstics meteorològics.

Per canviar el mapa: feu clic els botons verds amb una creu de color negre per apropar; al botó verd amb un guió per allunyar la imatge; o en les fletxes verdes per a mapes adjacents.


METAR-TAF: